sensor_id;sensor_type;location;lat;lon;timestamp;P1;durP1;ratioP1;P2;durP2;ratioP2
3916;SDS011;1973;50.518;7.318;2024-02-26T00:01:46;1.90;;;1.10;;
3916;SDS011;1973;50.518;7.318;2024-02-26T00:04:13;1.17;;;0.90;;
3916;SDS011;1973;50.518;7.318;2024-02-26T00:06:40;2.53;;;0.97;;
3916;SDS011;1973;50.518;7.318;2024-02-26T00:09:08;1.20;;;1.10;;
3916;SDS011;1973;50.518;7.318;2024-02-26T00:11:37;2.70;;;1.20;;
3916;SDS011;1973;50.518;7.318;2024-02-26T00:14:04;1.00;;;0.70;;
3916;SDS011;1973;50.518;7.318;2024-02-26T00:16:30;2.47;;;1.00;;
3916;SDS011;1973;50.518;7.318;2024-02-26T00:18:57;1.73;;;1.00;;
3916;SDS011;1973;50.518;7.318;2024-02-26T00:21:24;1.00;;;0.70;;
3916;SDS011;1973;50.518;7.318;2024-02-26T00:23:50;2.27;;;0.90;;
3916;SDS011;1973;50.518;7.318;2024-02-26T00:26:20;1.33;;;1.00;;
3916;SDS011;1973;50.518;7.318;2024-02-26T00:28:46;2.37;;;1.10;;
3916;SDS011;1973;50.518;7.318;2024-02-26T00:31:13;1.83;;;1.00;;
3916;SDS011;1973;50.518;7.318;2024-02-26T00:33:39;1.93;;;0.97;;
3916;SDS011;1973;50.518;7.318;2024-02-26T00:36:06;1.33;;;0.77;;
3916;SDS011;1973;50.518;7.318;2024-02-26T00:38:33;1.50;;;1.00;;
3916;SDS011;1973;50.518;7.318;2024-02-26T00:41:00;1.53;;;0.83;;
3916;SDS011;1973;50.518;7.318;2024-02-26T00:43:26;1.80;;;1.10;;
3916;SDS011;1973;50.518;7.318;2024-02-26T00:45:53;1.53;;;1.13;;
3916;SDS011;1973;50.518;7.318;2024-02-26T00:48:19;3.80;;;1.07;;
3916;SDS011;1973;50.518;7.318;2024-02-26T00:50:46;2.00;;;1.17;;
3916;SDS011;1973;50.518;7.318;2024-02-26T00:53:12;2.07;;;1.00;;
3916;SDS011;1973;50.518;7.318;2024-02-26T00:55:39;1.37;;;0.80;;
3916;SDS011;1973;50.518;7.318;2024-02-26T00:58:06;2.50;;;1.40;;
3916;SDS011;1973;50.518;7.318;2024-02-26T01:00:32;1.70;;;1.00;;
3916;SDS011;1973;50.518;7.318;2024-02-26T01:02:59;1.40;;;0.90;;
3916;SDS011;1973;50.518;7.318;2024-02-26T01:05:26;2.00;;;1.20;;
3916;SDS011;1973;50.518;7.318;2024-02-26T01:07:53;2.77;;;1.10;;
3916;SDS011;1973;50.518;7.318;2024-02-26T01:10:20;2.30;;;1.40;;
3916;SDS011;1973;50.518;7.318;2024-02-26T01:12:46;2.20;;;1.20;;
3916;SDS011;1973;50.518;7.318;2024-02-26T01:15:14;1.97;;;1.07;;
3916;SDS011;1973;50.518;7.318;2024-02-26T01:17:41;1.13;;;0.87;;
3916;SDS011;1973;50.518;7.318;2024-02-26T01:20:08;1.53;;;0.90;;
3916;SDS011;1973;50.518;7.318;2024-02-26T01:22:35;1.77;;;0.90;;
3916;SDS011;1973;50.518;7.318;2024-02-26T01:25:02;1.37;;;0.97;;
3916;SDS011;1973;50.518;7.318;2024-02-26T01:27:28;1.30;;;0.80;;
3916;SDS011;1973;50.518;7.318;2024-02-26T01:29:55;1.53;;;0.90;;
3916;SDS011;1973;50.518;7.318;2024-02-26T01:32:22;2.10;;;0.80;;
3916;SDS011;1973;50.518;7.318;2024-02-26T01:34:48;1.33;;;0.80;;
3916;SDS011;1973;50.518;7.318;2024-02-26T01:37:15;1.70;;;1.20;;
3916;SDS011;1973;50.518;7.318;2024-02-26T01:39:41;1.17;;;0.70;;
3916;SDS011;1973;50.518;7.318;2024-02-26T01:42:08;1.47;;;1.30;;
3916;SDS011;1973;50.518;7.318;2024-02-26T01:44:34;1.37;;;0.90;;
3916;SDS011;1973;50.518;7.318;2024-02-26T01:47:01;1.43;;;0.80;;
3916;SDS011;1973;50.518;7.318;2024-02-26T01:49:29;1.43;;;0.90;;
3916;SDS011;1973;50.518;7.318;2024-02-26T01:51:56;1.10;;;0.80;;
3916;SDS011;1973;50.518;7.318;2024-02-26T01:54:24;1.83;;;1.10;;
3916;SDS011;1973;50.518;7.318;2024-02-26T01:56:51;1.80;;;0.97;;
3916;SDS011;1973;50.518;7.318;2024-02-26T01:59:18;2.20;;;0.80;;
3916;SDS011;1973;50.518;7.318;2024-02-26T02:01:47;1.60;;;0.90;;
3916;SDS011;1973;50.518;7.318;2024-02-26T02:04:18;1.30;;;0.70;;
3916;SDS011;1973;50.518;7.318;2024-02-26T02:06:45;1.57;;;1.00;;
3916;SDS011;1973;50.518;7.318;2024-02-26T02:09:12;2.33;;;0.93;;
3916;SDS011;1973;50.518;7.318;2024-02-26T02:11:39;1.30;;;0.80;;
3916;SDS011;1973;50.518;7.318;2024-02-26T02:14:06;2.50;;;0.90;;
3916;SDS011;1973;50.518;7.318;2024-02-26T02:16:33;1.50;;;0.90;;
3916;SDS011;1973;50.518;7.318;2024-02-26T02:19:00;1.10;;;0.70;;
3916;SDS011;1973;50.518;7.318;2024-02-26T02:21:26;1.43;;;0.70;;
3916;SDS011;1973;50.518;7.318;2024-02-26T02:23:53;1.73;;;0.90;;
3916;SDS011;1973;50.518;7.318;2024-02-26T02:26:20;1.50;;;0.90;;
3916;SDS011;1973;50.518;7.318;2024-02-26T02:28:47;1.67;;;1.13;;
3916;SDS011;1973;50.518;7.318;2024-02-26T02:31:15;2.13;;;1.10;;
3916;SDS011;1973;50.518;7.318;2024-02-26T02:33:41;1.53;;;1.33;;
3916;SDS011;1973;50.518;7.318;2024-02-26T02:36:09;1.93;;;0.90;;
3916;SDS011;1973;50.518;7.318;2024-02-26T02:38:37;2.00;;;1.03;;
3916;SDS011;1973;50.518;7.318;2024-02-26T02:41:04;1.83;;;0.97;;
3916;SDS011;1973;50.518;7.318;2024-02-26T02:43:31;1.80;;;1.00;;
3916;SDS011;1973;50.518;7.318;2024-02-26T02:45:57;1.30;;;0.90;;
3916;SDS011;1973;50.518;7.318;2024-02-26T02:48:24;2.60;;;1.10;;
3916;SDS011;1973;50.518;7.318;2024-02-26T02:50:52;1.50;;;0.90;;
3916;SDS011;1973;50.518;7.318;2024-02-26T02:53:18;2.27;;;1.30;;
3916;SDS011;1973;50.518;7.318;2024-02-26T02:55:45;1.30;;;0.90;;
3916;SDS011;1973;50.518;7.318;2024-02-26T02:58:11;1.77;;;1.07;;
3916;SDS011;1973;50.518;7.318;2024-02-26T03:00:38;3.30;;;1.27;;
3916;SDS011;1973;50.518;7.318;2024-02-26T03:03:04;1.77;;;1.20;;
3916;SDS011;1973;50.518;7.318;2024-02-26T03:05:31;1.70;;;1.00;;
3916;SDS011;1973;50.518;7.318;2024-02-26T03:07:58;1.83;;;1.13;;
3916;SDS011;1973;50.518;7.318;2024-02-26T03:10:24;1.90;;;1.13;;
3916;SDS011;1973;50.518;7.318;2024-02-26T03:12:51;2.47;;;1.10;;
3916;SDS011;1973;50.518;7.318;2024-02-26T03:15:17;2.23;;;1.13;;
3916;SDS011;1973;50.518;7.318;2024-02-26T03:17:44;1.20;;;1.00;;
3916;SDS011;1973;50.518;7.318;2024-02-26T03:20:11;2.13;;;0.90;;
3916;SDS011;1973;50.518;7.318;2024-02-26T03:22:38;1.30;;;1.00;;
3916;SDS011;1973;50.518;7.318;2024-02-26T03:25:06;3.67;;;1.57;;
3916;SDS011;1973;50.518;7.318;2024-02-26T03:27:33;3.23;;;1.47;;
3916;SDS011;1973;50.518;7.318;2024-02-26T03:29:59;3.97;;;1.20;;
3916;SDS011;1973;50.518;7.318;2024-02-26T03:32:26;1.90;;;1.17;;
3916;SDS011;1973;50.518;7.318;2024-02-26T03:34:53;2.73;;;1.10;;
3916;SDS011;1973;50.518;7.318;2024-02-26T03:37:22;2.10;;;1.23;;
3916;SDS011;1973;50.518;7.318;2024-02-26T03:39:48;2.60;;;1.47;;
3916;SDS011;1973;50.518;7.318;2024-02-26T03:42:15;1.87;;;0.93;;
3916;SDS011;1973;50.518;7.318;2024-02-26T03:44:42;1.50;;;1.00;;
3916;SDS011;1973;50.518;7.318;2024-02-26T03:47:09;2.03;;;1.17;;
3916;SDS011;1973;50.518;7.318;2024-02-26T03:49:36;1.33;;;0.93;;
3916;SDS011;1973;50.518;7.318;2024-02-26T03:52:02;1.90;;;1.23;;
3916;SDS011;1973;50.518;7.318;2024-02-26T03:54:29;3.63;;;1.60;;
3916;SDS011;1973;50.518;7.318;2024-02-26T03:56:56;2.07;;;1.20;;
3916;SDS011;1973;50.518;7.318;2024-02-26T03:59:22;2.40;;;1.00;;
3916;SDS011;1973;50.518;7.318;2024-02-26T04:01:51;2.70;;;1.40;;
3916;SDS011;1973;50.518;7.318;2024-02-26T04:04:17;1.67;;;0.90;;
3916;SDS011;1973;50.518;7.318;2024-02-26T04:06:45;5.03;;;1.50;;
3916;SDS011;1973;50.518;7.318;2024-02-26T04:09:15;2.10;;;1.30;;
3916;SDS011;1973;50.518;7.318;2024-02-26T04:11:42;2.07;;;1.47;;
3916;SDS011;1973;50.518;7.318;2024-02-26T04:14:11;2.80;;;1.53;;
3916;SDS011;1973;50.518;7.318;2024-02-26T04:16:38;4.40;;;1.90;;
3916;SDS011;1973;50.518;7.318;2024-02-26T04:19:05;2.30;;;1.07;;
3916;SDS011;1973;50.518;7.318;2024-02-26T04:21:33;2.67;;;1.17;;
3916;SDS011;1973;50.518;7.318;2024-02-26T04:24:00;2.00;;;1.10;;
3916;SDS011;1973;50.518;7.318;2024-02-26T04:26:28;2.90;;;1.63;;
3916;SDS011;1973;50.518;7.318;2024-02-26T04:28:56;2.17;;;1.30;;
3916;SDS011;1973;50.518;7.318;2024-02-26T04:31:23;2.50;;;1.87;;
3916;SDS011;1973;50.518;7.318;2024-02-26T04:33:49;2.63;;;1.40;;
3916;SDS011;1973;50.518;7.318;2024-02-26T04:36:16;3.50;;;2.40;;
3916;SDS011;1973;50.518;7.318;2024-02-26T04:38:43;5.43;;;2.93;;
3916;SDS011;1973;50.518;7.318;2024-02-26T04:41:10;2.50;;;1.73;;
3916;SDS011;1973;50.518;7.318;2024-02-26T04:43:37;1.77;;;1.50;;
3916;SDS011;1973;50.518;7.318;2024-02-26T04:46:10;3.53;;;1.50;;
3916;SDS011;1973;50.518;7.318;2024-02-26T04:48:37;4.03;;;2.40;;
3916;SDS011;1973;50.518;7.318;2024-02-26T04:51:04;3.60;;;1.60;;
3916;SDS011;1973;50.518;7.318;2024-02-26T04:53:31;2.93;;;1.97;;
3916;SDS011;1973;50.518;7.318;2024-02-26T04:55:58;1.90;;;1.50;;
3916;SDS011;1973;50.518;7.318;2024-02-26T04:58:24;2.40;;;1.53;;
3916;SDS011;1973;50.518;7.318;2024-02-26T05:00:51;3.60;;;1.77;;
3916;SDS011;1973;50.518;7.318;2024-02-26T05:03:17;1.73;;;1.20;;
3916;SDS011;1973;50.518;7.318;2024-02-26T05:05:44;1.90;;;1.40;;
3916;SDS011;1973;50.518;7.318;2024-02-26T05:08:11;1.70;;;1.43;;
3916;SDS011;1973;50.518;7.318;2024-02-26T05:10:37;1.73;;;1.27;;
3916;SDS011;1973;50.518;7.318;2024-02-26T05:13:07;2.17;;;1.10;;
3916;SDS011;1973;50.518;7.318;2024-02-26T05:15:33;3.00;;;1.57;;
3916;SDS011;1973;50.518;7.318;2024-02-26T05:18:01;2.20;;;1.40;;
3916;SDS011;1973;50.518;7.318;2024-02-26T05:20:28;2.20;;;1.47;;
3916;SDS011;1973;50.518;7.318;2024-02-26T05:22:55;3.23;;;1.43;;
3916;SDS011;1973;50.518;7.318;2024-02-26T05:25:21;2.37;;;1.57;;
3916;SDS011;1973;50.518;7.318;2024-02-26T05:27:48;1.93;;;1.17;;
3916;SDS011;1973;50.518;7.318;2024-02-26T05:30:14;5.20;;;1.43;;
3916;SDS011;1973;50.518;7.318;2024-02-26T05:32:41;3.00;;;1.67;;
3916;SDS011;1973;50.518;7.318;2024-02-26T05:35:08;3.30;;;1.13;;
3916;SDS011;1973;50.518;7.318;2024-02-26T05:37:35;2.23;;;1.30;;
3916;SDS011;1973;50.518;7.318;2024-02-26T05:40:01;2.47;;;1.53;;
3916;SDS011;1973;50.518;7.318;2024-02-26T05:42:30;1.70;;;1.17;;
3916;SDS011;1973;50.518;7.318;2024-02-26T05:44:57;2.77;;;1.20;;
3916;SDS011;1973;50.518;7.318;2024-02-26T05:47:24;1.40;;;1.20;;
3916;SDS011;1973;50.518;7.318;2024-02-26T05:49:50;2.07;;;1.20;;
3916;SDS011;1973;50.518;7.318;2024-02-26T05:52:17;2.13;;;1.03;;
3916;SDS011;1973;50.518;7.318;2024-02-26T05:54:44;3.03;;;1.67;;
3916;SDS011;1973;50.518;7.318;2024-02-26T05:57:10;2.90;;;1.60;;
3916;SDS011;1973;50.518;7.318;2024-02-26T05:59:37;2.03;;;1.30;;
3916;SDS011;1973;50.518;7.318;2024-02-26T06:02:04;3.60;;;1.57;;
3916;SDS011;1973;50.518;7.318;2024-02-26T06:04:30;2.17;;;1.37;;
3916;SDS011;1973;50.518;7.318;2024-02-26T06:06:57;3.77;;;1.40;;
3916;SDS011;1973;50.518;7.318;2024-02-26T06:09:24;1.60;;;1.23;;
3916;SDS011;1973;50.518;7.318;2024-02-26T06:11:50;3.13;;;1.80;;
3916;SDS011;1973;50.518;7.318;2024-02-26T06:14:17;2.27;;;1.60;;
3916;SDS011;1973;50.518;7.318;2024-02-26T06:16:44;2.80;;;1.50;;
3916;SDS011;1973;50.518;7.318;2024-02-26T06:19:11;3.47;;;1.97;;
3916;SDS011;1973;50.518;7.318;2024-02-26T06:21:39;3.10;;;1.83;;
3916;SDS011;1973;50.518;7.318;2024-02-26T06:24:05;4.47;;;1.70;;
3916;SDS011;1973;50.518;7.318;2024-02-26T06:26:32;2.30;;;1.40;;
3916;SDS011;1973;50.518;7.318;2024-02-26T06:28:59;2.20;;;1.60;;
3916;SDS011;1973;50.518;7.318;2024-02-26T06:31:26;3.20;;;1.37;;
3916;SDS011;1973;50.518;7.318;2024-02-26T06:33:54;1.93;;;1.20;;
3916;SDS011;1973;50.518;7.318;2024-02-26T06:36:22;1.73;;;1.30;;
3916;SDS011;1973;50.518;7.318;2024-02-26T06:38:49;3.00;;;1.70;;
3916;SDS011;1973;50.518;7.318;2024-02-26T06:41:15;2.40;;;1.60;;
3916;SDS011;1973;50.518;7.318;2024-02-26T06:43:42;2.30;;;1.60;;
3916;SDS011;1973;50.518;7.318;2024-02-26T06:46:08;2.30;;;1.53;;
3916;SDS011;1973;50.518;7.318;2024-02-26T06:48:35;2.40;;;1.40;;
3916;SDS011;1973;50.518;7.318;2024-02-26T06:51:03;2.70;;;1.67;;
3916;SDS011;1973;50.518;7.318;2024-02-26T06:53:30;2.60;;;1.77;;
3916;SDS011;1973;50.518;7.318;2024-02-26T06:55:56;3.20;;;1.60;;
3916;SDS011;1973;50.518;7.318;2024-02-26T06:58:23;2.20;;;1.77;;
3916;SDS011;1973;50.518;7.318;2024-02-26T07:00:50;2.17;;;1.90;;
3916;SDS011;1973;50.518;7.318;2024-02-26T07:03:17;3.93;;;1.87;;
3916;SDS011;1973;50.518;7.318;2024-02-26T07:05:43;3.53;;;1.70;;
3916;SDS011;1973;50.518;7.318;2024-02-26T07:08:12;2.33;;;1.80;;
3916;SDS011;1973;50.518;7.318;2024-02-26T07:10:38;2.53;;;1.83;;
3916;SDS011;1973;50.518;7.318;2024-02-26T07:13:05;2.77;;;1.60;;
3916;SDS011;1973;50.518;7.318;2024-02-26T07:15:32;3.40;;;1.70;;
3916;SDS011;1973;50.518;7.318;2024-02-26T07:17:59;3.43;;;2.00;;
3916;SDS011;1973;50.518;7.318;2024-02-26T07:20:29;3.07;;;1.80;;
3916;SDS011;1973;50.518;7.318;2024-02-26T07:22:57;1.70;;;1.47;;
3916;SDS011;1973;50.518;7.318;2024-02-26T07:25:24;5.20;;;1.77;;
3916;SDS011;1973;50.518;7.318;2024-02-26T07:27:50;3.50;;;1.70;;
3916;SDS011;1973;50.518;7.318;2024-02-26T07:30:17;2.20;;;1.50;;
3916;SDS011;1973;50.518;7.318;2024-02-26T07:32:44;2.30;;;2.00;;
3916;SDS011;1973;50.518;7.318;2024-02-26T07:35:16;2.40;;;1.50;;
3916;SDS011;1973;50.518;7.318;2024-02-26T07:37:43;2.60;;;2.27;;
3916;SDS011;1973;50.518;7.318;2024-02-26T07:40:10;2.67;;;1.90;;
3916;SDS011;1973;50.518;7.318;2024-02-26T07:42:37;2.60;;;1.70;;
3916;SDS011;1973;50.518;7.318;2024-02-26T07:45:04;2.80;;;2.23;;
3916;SDS011;1973;50.518;7.318;2024-02-26T07:47:31;5.03;;;2.93;;
3916;SDS011;1973;50.518;7.318;2024-02-26T07:49:57;2.67;;;2.40;;
3916;SDS011;1973;50.518;7.318;2024-02-26T07:52:24;3.00;;;2.30;;
3916;SDS011;1973;50.518;7.318;2024-02-26T07:54:51;5.50;;;3.00;;
3916;SDS011;1973;50.518;7.318;2024-02-26T07:57:17;4.07;;;2.10;;
3916;SDS011;1973;50.518;7.318;2024-02-26T07:59:44;3.27;;;2.30;;
3916;SDS011;1973;50.518;7.318;2024-02-26T08:02:11;3.70;;;2.67;;
3916;SDS011;1973;50.518;7.318;2024-02-26T08:04:37;2.63;;;2.43;;
3916;SDS011;1973;50.518;7.318;2024-02-26T08:07:04;3.60;;;2.50;;
3916;SDS011;1973;50.518;7.318;2024-02-26T08:09:31;2.50;;;2.30;;
3916;SDS011;1973;50.518;7.318;2024-02-26T08:11:58;4.50;;;2.80;;
3916;SDS011;1973;50.518;7.318;2024-02-26T08:14:24;3.50;;;2.60;;
3916;SDS011;1973;50.518;7.318;2024-02-26T08:16:51;3.83;;;3.20;;
3916;SDS011;1973;50.518;7.318;2024-02-26T08:19:17;3.47;;;2.50;;
3916;SDS011;1973;50.518;7.318;2024-02-26T08:21:45;2.80;;;2.50;;
3916;SDS011;1973;50.518;7.318;2024-02-26T08:24:11;3.53;;;2.77;;
3916;SDS011;1973;50.518;7.318;2024-02-26T08:26:38;3.90;;;3.47;;
3916;SDS011;1973;50.518;7.318;2024-02-26T08:29:04;6.73;;;3.43;;
3916;SDS011;1973;50.518;7.318;2024-02-26T08:31:31;2.83;;;2.50;;
3916;SDS011;1973;50.518;7.318;2024-02-26T08:33:57;2.93;;;2.30;;
3916;SDS011;1973;50.518;7.318;2024-02-26T08:36:25;3.40;;;2.80;;
3916;SDS011;1973;50.518;7.318;2024-02-26T08:38:52;3.70;;;2.40;;
3916;SDS011;1973;50.518;7.318;2024-02-26T08:41:19;3.53;;;2.40;;
3916;SDS011;1973;50.518;7.318;2024-02-26T08:43:45;4.53;;;2.87;;
3916;SDS011;1973;50.518;7.318;2024-02-26T08:46:12;3.73;;;2.60;;
3916;SDS011;1973;50.518;7.318;2024-02-26T08:48:39;4.40;;;3.10;;
3916;SDS011;1973;50.518;7.318;2024-02-26T08:51:07;2.97;;;2.33;;
3916;SDS011;1973;50.518;7.318;2024-02-26T08:53:35;4.17;;;2.47;;
3916;SDS011;1973;50.518;7.318;2024-02-26T08:56:09;3.10;;;2.50;;
3916;SDS011;1973;50.518;7.318;2024-02-26T08:58:37;3.83;;;2.50;;
3916;SDS011;1973;50.518;7.318;2024-02-26T09:01:04;3.77;;;2.10;;
3916;SDS011;1973;50.518;7.318;2024-02-26T09:03:30;2.70;;;2.27;;
3916;SDS011;1973;50.518;7.318;2024-02-26T09:05:57;4.03;;;2.70;;
3916;SDS011;1973;50.518;7.318;2024-02-26T09:08:24;6.07;;;2.93;;
3916;SDS011;1973;50.518;7.318;2024-02-26T09:10:50;3.13;;;2.50;;
3916;SDS011;1973;50.518;7.318;2024-02-26T09:13:17;6.13;;;2.77;;
3916;SDS011;1973;50.518;7.318;2024-02-26T09:15:44;3.53;;;2.40;;
3916;SDS011;1973;50.518;7.318;2024-02-26T09:18:12;3.20;;;2.63;;
3916;SDS011;1973;50.518;7.318;2024-02-26T09:20:39;3.50;;;2.33;;
3916;SDS011;1973;50.518;7.318;2024-02-26T09:23:06;3.10;;;2.50;;
3916;SDS011;1973;50.518;7.318;2024-02-26T09:25:32;3.37;;;2.87;;
3916;SDS011;1973;50.518;7.318;2024-02-26T09:28:02;3.00;;;2.13;;
3916;SDS011;1973;50.518;7.318;2024-02-26T09:30:28;3.43;;;2.77;;
3916;SDS011;1973;50.518;7.318;2024-02-26T09:32:55;3.50;;;2.50;;
3916;SDS011;1973;50.518;7.318;2024-02-26T09:35:21;2.43;;;2.03;;
3916;SDS011;1973;50.518;7.318;2024-02-26T09:37:48;3.17;;;2.50;;
3916;SDS011;1973;50.518;7.318;2024-02-26T09:40:15;3.30;;;2.53;;
3916;SDS011;1973;50.518;7.318;2024-02-26T09:42:45;3.17;;;2.37;;
3916;SDS011;1973;50.518;7.318;2024-02-26T09:45:15;3.83;;;2.40;;
3916;SDS011;1973;50.518;7.318;2024-02-26T09:47:48;3.50;;;2.67;;
3916;SDS011;1973;50.518;7.318;2024-02-26T09:50:16;3.43;;;2.50;;
3916;SDS011;1973;50.518;7.318;2024-02-26T09:52:44;4.10;;;2.37;;
3916;SDS011;1973;50.518;7.318;2024-02-26T09:55:11;2.50;;;2.07;;
3916;SDS011;1973;50.518;7.318;2024-02-26T09:57:37;3.37;;;2.37;;
3916;SDS011;1973;50.518;7.318;2024-02-26T10:00:08;2.60;;;2.10;;
3916;SDS011;1973;50.518;7.318;2024-02-26T10:02:38;2.30;;;2.10;;
3916;SDS011;1973;50.518;7.318;2024-02-26T10:05:05;4.10;;;2.80;;
3916;SDS011;1973;50.518;7.318;2024-02-26T10:07:35;3.00;;;2.40;;
3916;SDS011;1973;50.518;7.318;2024-02-26T10:10:02;3.40;;;2.43;;
3916;SDS011;1973;50.518;7.318;2024-02-26T10:12:29;3.80;;;2.30;;
3916;SDS011;1973;50.518;7.318;2024-02-26T10:14:57;3.00;;;2.70;;
3916;SDS011;1973;50.518;7.318;2024-02-26T10:17:24;2.37;;;1.90;;
3916;SDS011;1973;50.518;7.318;2024-02-26T10:19:51;2.70;;;1.90;;
3916;SDS011;1973;50.518;7.318;2024-02-26T10:22:22;3.53;;;2.40;;
3916;SDS011;1973;50.518;7.318;2024-02-26T10:24:49;2.50;;;2.23;;
3916;SDS011;1973;50.518;7.318;2024-02-26T10:27:15;4.53;;;2.07;;
3916;SDS011;1973;50.518;7.318;2024-02-26T10:29:42;3.50;;;2.47;;
3916;SDS011;1973;50.518;7.318;2024-02-26T10:32:09;2.17;;;1.80;;
3916;SDS011;1973;50.518;7.318;2024-02-26T10:34:37;3.10;;;2.77;;
3916;SDS011;1973;50.518;7.318;2024-02-26T10:37:04;3.97;;;2.17;;
3916;SDS011;1973;50.518;7.318;2024-02-26T10:39:31;3.03;;;2.47;;
3916;SDS011;1973;50.518;7.318;2024-02-26T10:41:59;3.30;;;2.40;;
3916;SDS011;1973;50.518;7.318;2024-02-26T10:44:27;3.07;;;2.00;;
3916;SDS011;1973;50.518;7.318;2024-02-26T10:46:54;4.17;;;2.40;;
3916;SDS011;1973;50.518;7.318;2024-02-26T10:49:21;5.67;;;3.20;;
3916;SDS011;1973;50.518;7.318;2024-02-26T10:51:55;2.50;;;2.30;;
3916;SDS011;1973;50.518;7.318;2024-02-26T10:54:26;3.30;;;2.40;;
3916;SDS011;1973;50.518;7.318;2024-02-26T10:56:56;2.60;;;2.10;;
3916;SDS011;1973;50.518;7.318;2024-02-26T10:59:24;3.70;;;2.43;;
3916;SDS011;1973;50.518;7.318;2024-02-26T11:01:50;3.17;;;2.17;;
3916;SDS011;1973;50.518;7.318;2024-02-26T11:04:18;2.57;;;2.20;;
3916;SDS011;1973;50.518;7.318;2024-02-26T11:06:47;26.47;;;14.23;;
3916;SDS011;1973;50.518;7.318;2024-02-26T11:09:14;12.97;;;8.67;;
3916;SDS011;1973;50.518;7.318;2024-02-26T11:11:41;5.60;;;4.50;;
3916;SDS011;1973;50.518;7.318;2024-02-26T11:14:08;4.47;;;3.50;;
3916;SDS011;1973;50.518;7.318;2024-02-26T11:16:39;4.33;;;2.97;;
3916;SDS011;1973;50.518;7.318;2024-02-26T11:19:09;3.50;;;3.20;;
3916;SDS011;1973;50.518;7.318;2024-02-26T11:21:38;3.97;;;2.83;;
3916;SDS011;1973;50.518;7.318;2024-02-26T11:24:07;4.80;;;3.63;;
3916;SDS011;1973;50.518;7.318;2024-02-26T11:26:49;3.30;;;2.53;;
3916;SDS011;1973;50.518;7.318;2024-02-26T11:29:26;3.87;;;2.80;;
3916;SDS011;1973;50.518;7.318;2024-02-26T11:31:56;2.70;;;2.43;;
3916;SDS011;1973;50.518;7.318;2024-02-26T11:34:26;4.50;;;3.60;;
3916;SDS011;1973;50.518;7.318;2024-02-26T11:36:53;3.70;;;2.43;;
3916;SDS011;1973;50.518;7.318;2024-02-26T11:39:20;2.67;;;2.43;;
3916;SDS011;1973;50.518;7.318;2024-02-26T11:41:47;3.97;;;2.77;;
3916;SDS011;1973;50.518;7.318;2024-02-26T11:44:14;3.27;;;2.77;;
3916;SDS011;1973;50.518;7.318;2024-02-26T11:46:41;4.87;;;3.10;;
3916;SDS011;1973;50.518;7.318;2024-02-26T11:51:55;4.77;;;4.03;;
3916;SDS011;1973;50.518;7.318;2024-02-26T12:00:12;3.63;;;3.33;;
3916;SDS011;1973;50.518;7.318;2024-02-26T12:05:13;4.40;;;2.90;;
3916;SDS011;1973;50.518;7.318;2024-02-26T12:07:46;5.00;;;3.70;;
3916;SDS011;1973;50.518;7.318;2024-02-26T12:10:21;2.90;;;2.50;;
3916;SDS011;1973;50.518;7.318;2024-02-26T12:13:02;8.40;;;3.23;;
3916;SDS011;1973;50.518;7.318;2024-02-26T12:15:34;4.93;;;3.60;;
3916;SDS011;1973;50.518;7.318;2024-02-26T12:18:03;6.00;;;3.30;;
3916;SDS011;1973;50.518;7.318;2024-02-26T12:20:32;4.53;;;2.73;;
3916;SDS011;1973;50.518;7.318;2024-02-26T12:22:58;7.23;;;3.20;;
3916;SDS011;1973;50.518;7.318;2024-02-26T12:25:26;4.00;;;2.90;;
3916;SDS011;1973;50.518;7.318;2024-02-26T12:27:54;3.50;;;2.50;;
3916;SDS011;1973;50.518;7.318;2024-02-26T12:30:21;5.20;;;4.00;;
3916;SDS011;1973;50.518;7.318;2024-02-26T12:32:49;4.10;;;3.23;;
3916;SDS011;1973;50.518;7.318;2024-02-26T12:35:17;3.30;;;2.80;;
3916;SDS011;1973;50.518;7.318;2024-02-26T12:37:44;2.70;;;2.33;;
3916;SDS011;1973;50.518;7.318;2024-02-26T12:40:11;3.93;;;3.23;;
3916;SDS011;1973;50.518;7.318;2024-02-26T12:42:38;5.07;;;2.70;;
3916;SDS011;1973;50.518;7.318;2024-02-26T12:45:07;3.93;;;3.53;;
3916;SDS011;1973;50.518;7.318;2024-02-26T12:47:36;5.60;;;3.57;;
3916;SDS011;1973;50.518;7.318;2024-02-26T12:50:04;4.90;;;3.47;;
3916;SDS011;1973;50.518;7.318;2024-02-26T12:52:35;3.77;;;3.20;;
3916;SDS011;1973;50.518;7.318;2024-02-26T12:55:05;3.60;;;3.03;;
3916;SDS011;1973;50.518;7.318;2024-02-26T12:57:38;4.90;;;3.07;;
3916;SDS011;1973;50.518;7.318;2024-02-26T13:00:05;5.90;;;3.37;;
3916;SDS011;1973;50.518;7.318;2024-02-26T13:02:36;7.40;;;3.97;;
3916;SDS011;1973;50.518;7.318;2024-02-26T13:05:04;3.50;;;3.13;;
3916;SDS011;1973;50.518;7.318;2024-02-26T13:07:34;4.27;;;3.40;;
3916;SDS011;1973;50.518;7.318;2024-02-26T13:10:06;4.30;;;3.20;;
3916;SDS011;1973;50.518;7.318;2024-02-26T13:12:34;5.73;;;2.83;;
3916;SDS011;1973;50.518;7.318;2024-02-26T13:15:01;3.67;;;3.37;;
3916;SDS011;1973;50.518;7.318;2024-02-26T13:17:32;5.07;;;3.53;;
3916;SDS011;1973;50.518;7.318;2024-02-26T13:19:59;4.77;;;3.00;;
3916;SDS011;1973;50.518;7.318;2024-02-26T13:22:26;3.97;;;2.77;;
3916;SDS011;1973;50.518;7.318;2024-02-26T13:24:59;3.80;;;3.27;;
3916;SDS011;1973;50.518;7.318;2024-02-26T13:27:26;5.23;;;3.70;;
3916;SDS011;1973;50.518;7.318;2024-02-26T13:30:11;3.80;;;3.47;;
3916;SDS011;1973;50.518;7.318;2024-02-26T13:32:39;4.13;;;3.43;;
3916;SDS011;1973;50.518;7.318;2024-02-26T13:35:11;4.73;;;3.77;;
3916;SDS011;1973;50.518;7.318;2024-02-26T13:37:38;3.70;;;3.30;;
3916;SDS011;1973;50.518;7.318;2024-02-26T13:42:35;6.30;;;4.60;;
3916;SDS011;1973;50.518;7.318;2024-02-26T13:45:02;3.90;;;3.00;;
3916;SDS011;1973;50.518;7.318;2024-02-26T13:47:35;4.10;;;3.70;;
3916;SDS011;1973;50.518;7.318;2024-02-26T13:50:02;8.40;;;4.20;;
3916;SDS011;1973;50.518;7.318;2024-02-26T13:52:29;5.00;;;3.90;;
3916;SDS011;1973;50.518;7.318;2024-02-26T13:54:58;4.53;;;3.60;;
3916;SDS011;1973;50.518;7.318;2024-02-26T13:57:25;4.93;;;3.30;;
3916;SDS011;1973;50.518;7.318;2024-02-26T13:59:52;4.50;;;3.97;;
3916;SDS011;1973;50.518;7.318;2024-02-26T14:02:19;4.47;;;3.60;;
3916;SDS011;1973;50.518;7.318;2024-02-26T14:04:46;5.27;;;3.70;;
3916;SDS011;1973;50.518;7.318;2024-02-26T14:07:13;4.80;;;4.07;;
3916;SDS011;1973;50.518;7.318;2024-02-26T14:09:40;4.63;;;4.20;;
3916;SDS011;1973;50.518;7.318;2024-02-26T14:12:15;6.33;;;4.77;;
3916;SDS011;1973;50.518;7.318;2024-02-26T14:14:43;5.97;;;4.60;;
3916;SDS011;1973;50.518;7.318;2024-02-26T14:17:11;6.77;;;4.67;;
3916;SDS011;1973;50.518;7.318;2024-02-26T14:19:39;5.20;;;4.30;;
3916;SDS011;1973;50.518;7.318;2024-02-26T14:22:07;3.20;;;2.90;;
3916;SDS011;1973;50.518;7.318;2024-02-26T14:24:33;4.20;;;3.07;;
3916;SDS011;1973;50.518;7.318;2024-02-26T14:27:00;4.50;;;3.53;;
3916;SDS011;1973;50.518;7.318;2024-02-26T14:29:27;6.03;;;3.90;;
3916;SDS011;1973;50.518;7.318;2024-02-26T14:31:53;4.50;;;3.97;;
3916;SDS011;1973;50.518;7.318;2024-02-26T14:34:22;4.37;;;3.90;;
3916;SDS011;1973;50.518;7.318;2024-02-26T14:36:49;4.67;;;3.70;;
3916;SDS011;1973;50.518;7.318;2024-02-26T14:39:15;3.43;;;2.67;;
3916;SDS011;1973;50.518;7.318;2024-02-26T14:41:42;3.80;;;3.33;;
3916;SDS011;1973;50.518;7.318;2024-02-26T14:44:08;6.47;;;4.40;;
3916;SDS011;1973;50.518;7.318;2024-02-26T14:46:36;3.90;;;3.33;;
3916;SDS011;1973;50.518;7.318;2024-02-26T14:49:02;4.40;;;3.40;;
3916;SDS011;1973;50.518;7.318;2024-02-26T14:51:29;4.70;;;3.50;;
3916;SDS011;1973;50.518;7.318;2024-02-26T14:53:56;5.23;;;3.97;;
3916;SDS011;1973;50.518;7.318;2024-02-26T14:56:22;5.50;;;4.53;;
3916;SDS011;1973;50.518;7.318;2024-02-26T14:58:49;5.53;;;3.77;;
3916;SDS011;1973;50.518;7.318;2024-02-26T15:01:15;4.60;;;4.00;;
3916;SDS011;1973;50.518;7.318;2024-02-26T15:03:42;5.97;;;4.03;;
3916;SDS011;1973;50.518;7.318;2024-02-26T15:06:09;5.60;;;4.20;;
3916;SDS011;1973;50.518;7.318;2024-02-26T15:08:35;4.77;;;3.73;;
3916;SDS011;1973;50.518;7.318;2024-02-26T15:11:03;5.97;;;4.53;;
3916;SDS011;1973;50.518;7.318;2024-02-26T15:13:30;5.63;;;4.63;;
3916;SDS011;1973;50.518;7.318;2024-02-26T15:15:56;7.03;;;4.47;;
3916;SDS011;1973;50.518;7.318;2024-02-26T15:18:23;5.27;;;4.40;;
3916;SDS011;1973;50.518;7.318;2024-02-26T15:20:50;6.03;;;5.43;;
3916;SDS011;1973;50.518;7.318;2024-02-26T15:23:16;5.67;;;4.50;;
3916;SDS011;1973;50.518;7.318;2024-02-26T15:25:44;4.97;;;3.80;;
3916;SDS011;1973;50.518;7.318;2024-02-26T15:28:11;5.27;;;4.60;;
3916;SDS011;1973;50.518;7.318;2024-02-26T15:30:40;6.17;;;4.93;;